KAPC/APC METAR and TAF weather

Enter ICAO airport designator
Station Type Date Time Source
KAPC METAR 2019/02/23 02:54 UTC NOAA

KAPC 230254Z 00000KT 10SM CLR 08/03 A3016 RMK AO2 SLP204 T00830028 53015


Station Type Date Time Source
KAPC Decoded METAR 2019/02/23 02:54 UTC NOAA

NAPA COUNTY AIRPORT, CA, United States (KAPC) 38-12N 122-17W 13M
Feb 22, 2019 - 09:54 PM EST / 2019.02.23 0254 UTC
Wind: Calm:0
Visibility: 10 mile(s):0
Sky conditions: clear
Temperature: 46.9 F (8.3 C)
Dew Point: 37.0 F (2.8 C)
Relative Humidity: 68%
Pressure (altimeter): 30.16 in. Hg (1021 hPa)
Pressure tendency: 0.04 inches (1.5 hPa) higher than three hours ago
ob: KAPC 230254Z 00000KT 10SM CLR 08/03 A3016 RMK AO2 SLP204 T00830028 53015
cycle: 3

Station Type Date Time Source
KAPC TAF 2016/02/08 18:39 UTC NOAA

TAF KAPC 081738Z 0818/0918 08008KT P6SM SKC
FM081900 09012KT P6SM SKC
FM090000 07007KT P6SM SKC
FM090600 04004KT P6SM SKC


Example: see airport list